createdAt,value
2022-12-04T15:08:06.359Z,26.45
2022-12-04T15:10:53.916Z,28.83
2022-12-04T15:13:31.513Z,29.10
2022-12-04T15:16:04.119Z,32.38
2022-12-04T15:18:34.278Z,28.73
2022-12-04T15:21:07.365Z,31.13
2022-12-04T15:23:34.125Z,32.35
2022-12-04T15:26:03.964Z,30.13
2022-12-04T15:28:30.659Z,30.88
2022-12-04T15:31:00.074Z,31.15
2022-12-04T15:33:35.555Z,30.70
2022-12-04T15:36:10.336Z,31.67
2022-12-04T15:38:37.429Z,28.95
2022-12-04T15:41:04.275Z,32.65
2022-12-04T15:43:38.891Z,31.58
2022-12-04T15:46:26.744Z,28.77
2022-12-04T15:49:15.736Z,34.47
2022-12-04T15:51:44.281Z,32.50
2022-12-04T15:54:23.542Z,31.67
2022-12-04T15:57:03.697Z,32.28
2022-12-04T15:59:32.381Z,32.72
2022-12-04T16:02:21.636Z,32.70
2022-12-04T16:04:48.743Z,35.42
2022-12-04T16:07:30.245Z,33.78
2022-12-04T16:12:32.214Z,23.95
2022-12-04T16:14:59.237Z,30.45
2022-12-04T16:17:32.738Z,33.47
2022-12-04T16:20:00.283Z,28.77
2022-12-04T16:22:27.860Z,30.58
2022-12-04T16:24:56.597Z,31.88
2022-12-04T16:27:24.624Z,34.30
2022-12-04T16:29:53.061Z,25.45
2022-12-04T16:32:21.989Z,31.67
2022-12-04T16:34:49.147Z,33.05
2022-12-04T16:37:19.309Z,32.90
2022-12-04T16:39:46.768Z,33.38
2022-12-04T16:42:28.499Z,28.25
2022-12-04T16:44:56.292Z,36.72
2022-12-04T16:47:23.616Z,35.40
2022-12-04T16:49:51.972Z,28.60
2022-12-04T16:52:20.149Z,29.67
2022-12-04T16:54:50.123Z,30.63
2022-12-04T16:57:16.931Z,29.50
2022-12-04T16:59:43.752Z,29.98
2022-12-04T17:02:26.729Z,26.25
2022-12-04T17:04:57.440Z,31.73
2022-12-04T17:07:25.109Z,31.73
2022-12-04T17:09:52.236Z,41.72
2022-12-04T17:12:19.081Z,29.25
2022-12-04T17:14:47.067Z,29.88
2022-12-04T17:17:13.860Z,28.90
2022-12-04T17:19:40.605Z,30.20
2022-12-04T17:22:08.088Z,31.20
2022-12-04T17:24:37.856Z,32.80
2022-12-04T17:29:35.255Z,32.95
2022-12-04T17:32:02.014Z,29.88
2022-12-04T17:34:28.893Z,28.80
2022-12-04T17:36:56.434Z,30.33
2022-12-04T17:39:23.880Z,29.58
2022-12-04T17:41:50.857Z,28.48
2022-12-04T17:44:17.848Z,28.45
2022-12-04T17:46:45.583Z,29.13
2022-12-04T17:49:12.554Z,29.77
2022-12-04T17:51:39.386Z,28.95
2022-12-04T17:54:06.841Z,28.25
2022-12-04T17:56:34.049Z,37.78
2022-12-04T17:59:00.970Z,31.35
2022-12-04T18:01:29.294Z,25.23
2022-12-04T18:03:59.001Z,22.98
2022-12-04T18:06:34.401Z,28.20
2022-12-04T18:09:02.231Z,23.23
2022-12-04T18:11:30.929Z,27.42
2022-12-04T18:14:08.520Z,29.17
2022-12-04T18:16:41.355Z,26.77
2022-12-04T18:19:08.210Z,25.60
2022-12-04T18:21:35.336Z,29.15
2022-12-04T18:24:04.227Z,27.13
2022-12-04T18:26:52.677Z,29.35
2022-12-04T18:29:22.510Z,28.15
2022-12-04T18:31:51.079Z,28.23
2022-12-04T18:34:19.871Z,29.98
2022-12-04T18:36:46.918Z,34.58
2022-12-04T18:39:22.813Z,38.97
2022-12-04T18:41:49.941Z,26.63
2022-12-04T18:44:17.807Z,35.75
2022-12-04T18:46:44.647Z,34.13
2022-12-04T18:49:11.930Z,35.17
2022-12-04T18:51:44.585Z,31.23
2022-12-04T18:54:19.523Z,33.80
2022-12-04T18:56:49.866Z,35.53
2022-12-04T18:59:30.049Z,32.50
2022-12-04T19:01:57.166Z,42.53
2022-12-04T19:04:25.681Z,36.55
2022-12-04T19:06:55.359Z,37.90
2022-12-04T19:10:08.856Z,37.90
2022-12-04T19:12:32.072Z,37.97
2022-12-04T19:14:59.324Z,38.05
2022-12-04T19:17:26.336Z,39.20
2022-12-04T19:19:54.767Z,39.70
2022-12-04T19:22:21.927Z,38.60
2022-12-04T19:24:48.756Z,42.65
2022-12-04T19:27:15.638Z,42.17
2022-12-04T19:29:50.732Z,43.17
2022-12-04T19:32:17.764Z,46.78
2022-12-04T19:34:50.811Z,38.70
2022-12-04T19:37:20.186Z,42.80
2022-12-04T19:39:47.133Z,45.38
2022-12-04T19:42:23.416Z,44.97
2022-12-04T19:44:50.412Z,41.17
2022-12-04T19:47:18.391Z,42.13
2022-12-04T19:49:47.732Z,42.70
2022-12-04T19:52:15.302Z,42.53
2022-12-04T19:54:56.201Z,43.08
2022-12-04T19:57:24.619Z,39.35
2022-12-04T20:00:06.282Z,42.25
2022-12-04T20:05:11.994Z,38.17
2022-12-04T20:07:38.937Z,42.13
2022-12-04T20:10:09.032Z,41.13
2022-12-04T20:12:38.482Z,40.00
2022-12-04T20:15:05.558Z,39.42
2022-12-04T20:17:32.873Z,42.60
2022-12-04T20:19:59.847Z,40.55
2022-12-04T20:22:27.595Z,42.42
2022-12-04T20:24:54.487Z,40.60
2022-12-04T20:27:23.570Z,38.28
2022-12-04T20:29:50.488Z,41.80
2022-12-04T20:32:17.386Z,37.42
2022-12-04T20:34:48.430Z,40.90
2022-12-04T20:37:15.526Z,38.63
2022-12-04T20:39:42.402Z,42.70
2022-12-04T20:42:09.668Z,40.83
2022-12-04T20:44:36.768Z,38.70
2022-12-04T20:47:03.985Z,37.88
2022-12-04T20:49:38.530Z,38.42
2022-12-04T20:52:05.585Z,37.28
2022-12-04T20:54:40.843Z,41.80
2022-12-04T20:57:08.820Z,38.08
2022-12-04T20:59:39.017Z,38.42
2022-12-04T21:02:11.914Z,37.60
2022-12-04T21:04:39.920Z,37.60
2022-12-04T21:07:07.302Z,36.83
2022-12-04T21:09:34.342Z,38.67
2022-12-04T21:12:01.386Z,38.00
2022-12-04T21:14:53.800Z,37.17
2022-12-04T21:17:26.514Z,44.08
2022-12-04T21:19:53.397Z,39.80
2022-12-04T21:22:20.412Z,38.30
2022-12-04T21:24:47.269Z,38.47
2022-12-04T21:27:19.183Z,38.00
2022-12-04T21:29:47.857Z,39.05
2022-12-04T21:32:14.995Z,36.67
2022-12-04T21:34:42.040Z,39.53
2022-12-04T21:37:08.751Z,37.20
2022-12-04T21:39:36.950Z,37.53
2022-12-04T21:42:22.540Z,37.67
2022-12-04T21:44:49.263Z,37.78
2022-12-04T21:47:16.151Z,37.05
2022-12-04T21:49:42.940Z,37.92
2022-12-04T21:52:09.814Z,36.08
2022-12-04T21:54:36.646Z,37.53
2022-12-04T21:57:03.453Z,37.92
2022-12-04T21:59:31.625Z,40.65
2022-12-04T22:01:58.487Z,38.85
2022-12-04T22:04:25.619Z,42.55
2022-12-04T22:06:52.419Z,38.88
2022-12-04T22:09:19.391Z,34.83
2022-12-04T22:11:46.665Z,37.72
2022-12-04T22:14:13.809Z,37.22
2022-12-04T22:16:43.455Z,35.75
2022-12-04T22:19:12.277Z,36.38
2022-12-04T22:21:39.501Z,35.47
2022-12-04T22:24:07.896Z,37.65
2022-12-04T22:26:35.087Z,37.08
2022-12-04T22:29:05.097Z,37.67
2022-12-04T22:31:38.274Z,38.80
2022-12-04T22:34:05.116Z,36.28
2022-12-04T22:36:32.917Z,36.95
2022-12-04T22:39:15.204Z,36.47
2022-12-04T22:41:42.141Z,35.72
2022-12-04T22:44:08.934Z,37.85
2022-12-04T22:46:36.120Z,35.88
2022-12-04T22:49:03.025Z,35.67
2022-12-04T22:51:30.094Z,37.08
2022-12-04T22:53:58.109Z,35.67
2022-12-04T22:56:30.936Z,36.47
2022-12-04T22:58:58.475Z,34.88
2022-12-04T23:01:27.796Z,36.35
2022-12-04T23:03:55.141Z,36.85
2022-12-04T23:06:24.056Z,34.20
2022-12-04T23:08:55.548Z,34.78
2022-12-04T23:14:00.285Z,31.75
2022-12-04T23:16:32.177Z,35.97
2022-12-04T23:18:59.325Z,34.35
2022-12-04T23:21:26.944Z,32.95
2022-12-04T23:23:54.870Z,33.97
2022-12-04T23:26:33.344Z,33.33
2022-12-04T23:29:01.688Z,32.58
2022-12-04T23:31:29.646Z,33.42
2022-12-04T23:33:56.404Z,34.58
2022-12-04T23:36:23.388Z,32.20
2022-12-04T23:38:50.190Z,32.17
2022-12-04T23:41:21.360Z,30.60
2022-12-04T23:43:49.342Z,30.75
2022-12-04T23:46:19.844Z,31.88
2022-12-04T23:48:47.464Z,32.23
2022-12-04T23:51:16.538Z,30.90
2022-12-04T23:53:43.337Z,32.38
2022-12-04T23:56:27.813Z,31.48
2022-12-04T23:58:57.135Z,32.58
